createdAt,value
2022-11-17T00:00:54.835Z,8.7
2022-11-17T00:06:52.707Z,8.6
2022-11-17T00:12:54.072Z,8.6
2022-11-17T00:18:44.735Z,8.6
2022-11-17T00:24:49.888Z,8.6
2022-11-17T00:30:58.670Z,8.6
2022-11-17T00:36:47.737Z,8.6
2022-11-17T00:42:47.305Z,8.6
2022-11-17T00:48:53.911Z,8.6
2022-11-17T00:55:10.727Z,8.6
2022-11-17T01:01:01.583Z,8.6
2022-11-17T01:06:58.456Z,8.5
2022-11-17T01:12:44.078Z,8.6
2022-11-17T01:19:12.458Z,8.5
2022-11-17T01:24:59.146Z,8.5
2022-11-17T01:30:57.167Z,8.6
2022-11-17T01:36:59.222Z,8.6
2022-11-17T01:42:55.048Z,8.6
2022-11-17T01:48:44.094Z,8.6
2022-11-17T01:54:50.902Z,8.6
2022-11-17T02:00:59.732Z,8.6
2022-11-17T02:06:51.174Z,8.6
2022-11-17T02:12:44.028Z,8.5
2022-11-17T02:18:45.169Z,8.6
2022-11-17T02:24:43.245Z,8.6
2022-11-17T02:30:46.696Z,8.6
2022-11-17T02:36:44.586Z,8.7
2022-11-17T02:42:43.929Z,8.6
2022-11-17T02:48:47.544Z,8.6
2022-11-17T02:54:50.583Z,8.6
2022-11-17T03:00:54.880Z,8.7
2022-11-17T03:06:44.124Z,8.6
2022-11-17T03:12:46.981Z,8.6
2022-11-17T03:18:44.788Z,8.6
2022-11-17T03:24:43.102Z,8.6
2022-11-17T03:30:59.163Z,8.7
2022-11-17T03:37:08.907Z,8.7
2022-11-17T03:42:57.598Z,8.6
2022-11-17T03:49:00.753Z,8.7
2022-11-17T03:54:45.206Z,8.6
2022-11-17T04:00:56.925Z,8.6
2022-11-17T04:06:52.375Z,8.5
2022-11-17T04:12:59.847Z,8.5
2022-11-17T04:18:57.469Z,8.5
2022-11-17T04:24:51.410Z,8.4
2022-11-17T04:30:48.692Z,8.5
2022-11-17T04:36:49.489Z,8.4
2022-11-17T04:43:00.373Z,8.5
2022-11-17T04:49:00.836Z,8.4
2022-11-17T04:54:57.870Z,8.4
2022-11-17T05:00:59.306Z,8.5
2022-11-17T05:06:50.719Z,8.5
2022-11-17T05:12:55.925Z,8.5
2022-11-17T05:18:59.892Z,8.5
2022-11-17T05:24:56.701Z,8.5
2022-11-17T05:30:59.153Z,8.5
2022-11-17T05:37:03.074Z,8.4
2022-11-17T05:43:01.071Z,8.5
2022-11-17T05:48:54.152Z,8.5
2022-11-17T05:54:53.433Z,8.5
2022-11-17T06:00:54.486Z,8.5
2022-11-17T06:07:12.126Z,8.6
2022-11-17T06:12:55.101Z,8.6
2022-11-17T06:18:59.212Z,8.6
2022-11-17T06:24:46.451Z,8.6
2022-11-17T06:30:56.225Z,8.7
2022-11-17T06:36:51.455Z,8.8
2022-11-17T06:42:57.636Z,8.8
2022-11-17T06:48:50.404Z,8.8
2022-11-17T06:54:47.438Z,8.8
2022-11-17T07:00:56.507Z,8.9
2022-11-17T07:06:50.971Z,8.9
2022-11-17T07:12:53.509Z,8.8
2022-11-17T07:18:44.647Z,8.8
2022-11-17T07:24:48.309Z,8.6
2022-11-17T07:30:53.066Z,8.5
2022-11-17T07:36:52.598Z,8.6
2022-11-17T07:42:46.331Z,8.6
2022-11-17T07:48:43.745Z,8.8
2022-11-17T07:54:45.489Z,8.8
2022-11-17T08:00:55.095Z,8.8
2022-11-17T08:06:46.634Z,8.9
2022-11-17T08:12:56.672Z,8.9
2022-11-17T08:18:55.010Z,8.9
2022-11-17T08:25:03.624Z,8.9
2022-11-17T08:31:00.090Z,8.9
2022-11-17T08:36:53.065Z,8.9
2022-11-17T08:42:56.159Z,8.9
2022-11-17T08:48:48.947Z,8.9
2022-11-17T08:54:50.335Z,9
2022-11-17T09:00:57.632Z,9
2022-11-17T09:06:46.752Z,9
2022-11-17T09:12:48.675Z,9.1
2022-11-17T09:18:49.476Z,9.1
2022-11-17T09:24:46.867Z,9.1
2022-11-17T09:31:01.286Z,9.1
2022-11-17T09:36:55.064Z,9
2022-11-17T09:42:55.421Z,9
2022-11-17T09:48:43.435Z,8.7
2022-11-17T09:54:43.191Z,8.7
2022-11-17T10:00:54.142Z,8.7
2022-11-17T10:06:49.228Z,8.7
2022-11-17T10:12:44.483Z,8.7
2022-11-17T10:18:46.654Z,8.8
2022-11-17T10:24:44.598Z,8.9
2022-11-17T10:30:50.508Z,8.8
2022-11-17T10:36:45.274Z,8.8
2022-11-17T10:42:43.524Z,8.7
2022-11-17T10:48:43.092Z,8.3
2022-11-17T10:54:43.049Z,8.3
2022-11-17T11:00:53.058Z,8.4
2022-11-17T11:06:45.411Z,8.5
2022-11-17T11:12:43.917Z,8.6
2022-11-17T11:18:43.564Z,8.4
2022-11-17T11:24:45.130Z,8.3
2022-11-17T11:30:49.313Z,8.3
2022-11-17T11:36:42.978Z,7.8
2022-11-17T11:42:43.436Z,7.9
2022-11-17T11:48:43.563Z,7.8
2022-11-17T11:54:50.572Z,7.8
2022-11-17T12:00:44.853Z,7.7
2022-11-17T12:06:43.203Z,7.4
2022-11-17T12:12:42.893Z,7.4
2022-11-17T12:18:43.080Z,7.4
2022-11-17T12:24:42.865Z,7.6
2022-11-17T12:30:43.121Z,7.6
2022-11-17T12:36:43.081Z,7.6
2022-11-17T12:42:42.816Z,7.6
2022-11-17T12:48:42.944Z,7.6
2022-11-17T12:54:42.947Z,7.5
2022-11-17T13:00:43.032Z,7.5
2022-11-17T13:06:42.946Z,7.7
2022-11-17T13:12:43.474Z,7.7
2022-11-17T13:18:43.124Z,7.6
2022-11-17T13:24:43.722Z,7.9
2022-11-17T13:30:48.752Z,7.9
2022-11-17T13:36:43.094Z,7.9
2022-11-17T13:42:43.576Z,7.9
2022-11-17T13:48:43.311Z,7.9
2022-11-17T13:54:43.109Z,7.9
2022-11-17T14:00:51.386Z,7.9
2022-11-17T14:06:43.568Z,7.7
2022-11-17T14:12:43.342Z,7.9
2022-11-17T14:18:43.532Z,7.9
2022-11-17T14:24:43.355Z,7.6
2022-11-17T14:30:50.155Z,7.8
2022-11-17T14:36:43.315Z,7.8
2022-11-17T14:42:44.126Z,7.8
2022-11-17T14:48:43.452Z,7.8
2022-11-17T14:54:43.516Z,7.9
2022-11-17T15:00:58.129Z,8
2022-11-17T15:06:44.211Z,7.9
2022-11-17T15:12:43.195Z,7.9
2022-11-17T15:18:43.434Z,8
2022-11-17T15:24:43.652Z,8
2022-11-17T15:31:01.932Z,8
2022-11-17T15:36:44.880Z,8
2022-11-17T15:42:46.105Z,8
2022-11-17T15:48:46.058Z,8
2022-11-17T15:54:44.905Z,8
2022-11-17T16:00:55.969Z,8.1
2022-11-17T16:06:43.299Z,8
2022-11-17T16:12:43.918Z,8
2022-11-17T16:18:43.510Z,8
2022-11-17T16:24:43.560Z,8
2022-11-17T16:31:01.022Z,8
2022-11-17T16:36:43.348Z,8
2022-11-17T16:42:43.537Z,8
2022-11-17T16:48:43.719Z,8
2022-11-17T16:54:44.501Z,8
2022-11-17T17:00:57.416Z,8.1
2022-11-17T17:06:43.238Z,8.1
2022-11-17T17:12:44.196Z,8.1
2022-11-17T17:18:44.242Z,8
2022-11-17T17:24:44.091Z,8.1
2022-11-17T17:30:58.850Z,8.1
2022-11-17T17:36:43.324Z,8.1
2022-11-17T17:42:43.669Z,8.1
2022-11-17T17:48:43.736Z,8.1
2022-11-17T17:54:43.388Z,8.2
2022-11-17T18:00:55.140Z,8.1
2022-11-17T18:06:43.472Z,8.2
2022-11-17T18:12:43.384Z,8.2
2022-11-17T18:18:43.378Z,8.2
2022-11-17T18:24:43.984Z,8.2
2022-11-17T18:30:58.883Z,8.3
2022-11-17T18:36:43.514Z,8.3
2022-11-17T18:42:43.408Z,8.3
2022-11-17T18:48:43.456Z,8.3
2022-11-17T18:54:44.187Z,8.3
2022-11-17T19:00:59.319Z,8.4
2022-11-17T19:06:43.440Z,8.3
2022-11-17T19:12:43.651Z,8.3
2022-11-17T19:18:44.063Z,8.2
2022-11-17T19:24:43.609Z,8.3
2022-11-17T19:30:55.642Z,8.3
2022-11-17T19:36:43.747Z,8.3
2022-11-17T19:42:43.457Z,8.3
2022-11-17T19:48:43.581Z,8.3
2022-11-17T19:54:43.372Z,8.3
2022-11-17T20:00:57.823Z,8.3
2022-11-17T20:06:43.646Z,8.3
2022-11-17T20:12:43.531Z,8.2
2022-11-17T20:18:43.308Z,8.2
2022-11-17T20:24:43.522Z,8.2
2022-11-17T20:30:58.520Z,8.3
2022-11-17T20:36:43.850Z,8.3
2022-11-17T20:42:43.537Z,8.3
2022-11-17T20:48:43.671Z,8.4
2022-11-17T20:54:43.566Z,8.4
2022-11-17T21:00:59.871Z,8.4
2022-11-17T21:06:43.855Z,8.4
2022-11-17T21:12:43.447Z,8.4
2022-11-17T21:18:43.522Z,8.4
2022-11-17T21:24:44.155Z,8.4
2022-11-17T21:31:05.118Z,8.4
2022-11-17T21:36:44.092Z,8.3
2022-11-17T21:42:59.877Z,8.3
2022-11-17T21:48:56.057Z,8.3
2022-11-17T21:54:52.576Z,8.2
2022-11-17T22:01:02.120Z,8.2
2022-11-17T22:06:59.834Z,8.2
2022-11-17T22:12:56.389Z,8.1
2022-11-17T22:18:56.101Z,8.1
2022-11-17T22:24:51.715Z,8.1
2022-11-17T22:31:07.428Z,8
2022-11-17T22:37:05.275Z,8
2022-11-17T22:42:52.034Z,8
2022-11-17T22:48:57.811Z,7.9
2022-11-17T22:54:53.364Z,7.9
2022-11-17T23:01:01.234Z,7.9
2022-11-17T23:07:01.569Z,7.9
2022-11-17T23:12:59.910Z,8
2022-11-17T23:19:00.028Z,8
2022-11-17T23:24:56.057Z,8
2022-11-17T23:30:57.692Z,8.1
2022-11-17T23:37:06.977Z,8.2
2022-11-17T23:43:04.575Z,8.1
2022-11-17T23:48:53.979Z,8.2
2022-11-17T23:55:05.915Z,8.2
